Time;durP1;ratioP1;P1;durP2;ratioP2;P2;SDS_P1;SDS_P2;PMS_P1;PMS_P2;Temp;Humidity;BMP_temperature;BMP_pressure;BME280_temperature;BME280_humidity;BME280_pressure;Samples;Min_cycle;Max_cycle;Signal;HPM_P1;HPM_P2
2023/05/24 00:00:01;;;;;;;;;5.00;3.00;;;;;21.52;39.66;101863.97;5019280;28;45191;-57
2023/05/24 00:02:26;;;;;;;;;3.25;2.25;;;;;21.51;39.59;101858.75;5019203;28;46468;-57
2023/05/24 00:04:52;;;;;;;;;2.00;2.00;;;;;21.50;39.96;101865.81;5019144;28;46244;-57
2023/05/24 00:07:18;;;;;;;;;3.00;2.00;;;;;21.51;39.63;101856.97;5019358;28;45192;-57
2023/05/24 00:09:43;;;;;;;;;3.00;3.00;;;;;21.50;39.59;101857.06;5019404;28;45549;-49
2023/05/24 00:12:09;;;;;;;;;2.50;1.50;;;;;21.50;39.83;101857.06;5018922;28;46273;-53
2023/05/24 00:14:34;;;;;;;;;2.75;2.75;;;;;21.49;39.66;101853.53;5019197;28;45493;-48
2023/05/24 00:16:59;;;;;;;;;1.00;1.00;;;;;21.49;39.26;101842.16;5034403;28;45422;-49
2023/05/24 00:19:26;;;;;;;;;1.50;1.50;;;;;21.50;39.48;101846.50;5019136;28;45356;-52
2023/05/24 00:21:51;;;;;;;;;4.50;1.75;;;;;21.48;39.61;101846.56;5017606;28;45563;-54
2023/05/24 00:24:17;;;;;;;;;1.75;1.75;;;;;21.47;39.23;101845.72;5018822;28;45241;-56
2023/05/24 00:26:43;;;;;;;;;1.25;1.25;;;;;21.47;39.60;101840.44;5019035;28;45497;-58
2023/05/24 00:29:08;;;;;;;;;3.00;1.00;;;;;21.45;39.50;101837.00;5019452;28;45556;-55
2023/05/24 00:31:36;;;;;;;;;1.00;1.00;;;;;21.47;39.74;101834.28;5017647;28;46899;-53
2023/05/24 00:34:02;;;;;;;;;1.25;1.25;;;;;21.45;39.56;101826.44;5018465;28;45347;-57
2023/05/24 00:36:27;;;;;;;;;1.00;1.00;;;;;21.47;39.42;101823.72;5018670;28;45268;-54
2023/05/24 00:38:52;;;;;;;;;1.00;1.00;;;;;21.46;39.41;101835.22;5018991;28;45513;-54
2023/05/24 00:41:18;;;;;;;;;3.00;1.50;;;;;21.46;39.54;101819.38;5018458;28;47127;-57
2023/05/24 00:43:43;;;;;;;;;1.25;1.25;;;;;21.44;39.37;101818.63;5018452;28;45572;-56
2023/05/24 00:46:30;;;;;;;;;2.00;1.25;;;;;21.44;39.42;101810.72;5018906;28;45466;-54
2023/05/24 00:48:56;;;;;;;;;1.50;1.50;;;;;21.45;39.49;101815.03;5018750;28;45383;-57
2023/05/24 00:51:23;;;;;;;;;4.50;2.75;;;;;21.44;39.42;101813.34;5018254;28;46439;-56
2023/05/24 00:53:49;;;;;;;;;1.00;1.00;;;;;21.42;39.46;101816.03;5018536;28;45832;-57
2023/05/24 00:56:15;;;;;;;;;2.00;2.00;;;;;21.43;39.60;101814.25;5018576;28;45309;-55
2023/05/24 00:58:40;;;;;;;;;1.50;1.50;;;;;21.42;39.54;101808.13;5018834;28;45657;-47
2023/05/24 01:01:07;;;;;;;;;3.50;2.50;;;;;21.41;39.31;101802.91;5018243;28;46448;-53
2023/05/24 01:03:32;;;;;;;;;3.00;1.50;;;;;21.43;39.34;101803.72;5018335;28;45339;-51
2023/05/24 01:06:00;;;;;;;;;2.00;2.00;;;;;21.42;39.49;101808.13;5018312;28;45361;-56
2023/05/24 01:08:42;;;;;;;;;3.25;1.25;;;;;21.42;39.47;101805.47;5018453;28;45317;-55
2023/05/24 01:11:19;;;;;;;;;2.00;2.00;;;;;21.42;39.27;101807.28;5018503;28;46306;-54
2023/05/24 01:14:09;;;;;;;;;2.00;2.00;;;;;21.40;39.35;101799.41;5016749;28;46000;-56
2023/05/24 01:16:48;;;;;;;;;2.00;2.00;;;;;21.41;39.32;101814.31;5017939;28;45292;-60
2023/05/24 01:19:34;;;;;;;;;2.75;2.25;;;;;21.40;39.46;101802.03;5018323;28;45414;-56
2023/05/24 01:22:20;;;;;;;;;2.00;2.00;;;;;21.41;39.47;101818.75;5018052;28;46167;-57
2023/05/24 01:25:02;;;;;;;;;2.00;2.00;;;;;21.40;39.53;101817.03;5017558;28;45457;-56
2023/05/24 01:27:32;;;;;;;;;3.00;2.00;;;;;21.38;39.34;101818.88;5017999;28;45300;-57
2023/05/24 01:29:59;;;;;;;;;2.50;1.00;;;;;21.38;39.57;101814.47;5018155;28;45366;-56
2023/05/24 01:32:25;;;;;;;;;2.00;1.00;;;;;21.37;39.33;101814.50;5017504;28;45268;-57
2023/05/24 01:34:51;;;;;;;;;2.25;2.00;;;;;21.39;39.32;101816.16;5017827;28;45295;-58
2023/05/24 01:37:16;;;;;;;;;3.25;2.75;;;;;21.38;39.43;101813.59;5017389;28;53229;-56
2023/05/24 01:39:41;;;;;;;;;1.75;1.75;;;;;21.39;39.37;101820.59;5017034;28;45642;-57
2023/05/24 01:42:30;;;;;;;;;4.00;1.00;;;;;21.38;39.77;101822.38;5017489;28;45217;-57
2023/05/24 01:45:07;;;;;;;;;2.00;2.00;;;;;21.37;39.52;101828.56;5017660;28;45351;-57
2023/05/24 01:48:00;;;;;;;;;2.00;2.00;;;;;21.38;39.65;101827.66;5017776;28;45517;-57
2023/05/24 01:50:44;;;;;;;;;4.25;1.00;;;;;21.37;39.42;101828.56;5017774;28;45337;-57
2023/05/24 01:53:13;;;;;;;;;2.50;2.00;;;;;21.35;39.58;101819.00;5016541;28;46684;-56
2023/05/24 01:55:39;;;;;;;;;2.00;1.00;;;;;21.38;39.65;101818.88;5017777;28;45699;-53
2023/05/24 01:58:06;;;;;;;;;1.00;1.00;;;;;21.37;39.50;101819.78;5017625;28;45355;-51
2023/05/24 02:00:33;;;;;;;;;2.25;2.25;;;;;21.36;39.34;101825.97;5017708;28;45208;-56
2023/05/24 02:03:01;;;;;;;;;1.50;1.50;;;;;21.36;39.26;101832.13;5017149;28;45375;-56
2023/05/24 02:05:26;;;;;;;;;2.00;2.00;;;;;21.36;39.30;101826.84;5017449;28;45883;-57
2023/05/24 02:07:51;;;;;;;;;1.00;1.00;;;;;21.35;39.26;101819.88;5017363;28;45450;-57
2023/05/24 02:10:17;;;;;;;;;3.00;2.00;;;;;21.35;39.36;101826.91;5017431;28;45453;-56
2023/05/24 02:12:42;;;;;;;;;3.00;1.75;;;;;21.34;39.63;101831.34;5016226;28;45410;-56
2023/05/24 02:15:09;;;;;;;;;2.00;2.00;;;;;21.33;39.29;101829.63;5016934;28;51887;-47
2023/05/24 02:17:34;;;;;;;;;1.25;1.00;;;;;21.34;39.27;101825.19;5017384;28;45419;-53
2023/05/24 02:20:00;;;;;;;;;0.25;0.25;;;;;21.34;39.53;101828.69;5017523;28;45539;-49
2023/05/24 02:22:27;;;;;;;;;0.50;0.50;;;;;21.35;39.31;101824.25;5016976;28;46306;-55
2023/05/24 02:24:52;;;;;;;;;1.00;1.00;;;;;21.33;39.27;101813.78;5032354;28;45760;-50
2023/05/24 02:27:18;;;;;;;;;3.00;1.50;;;;;21.33;39.50;101813.78;5017097;28;45402;-55
2023/05/24 02:29:43;;;;;;;;;1.50;1.00;;;;;21.35;39.53;101821.63;5017500;28;45411;-51
2023/05/24 02:32:09;;;;;;;;;2.00;2.00;;;;;21.33;39.59;101815.59;5016651;28;46508;-50
2023/05/24 02:34:34;;;;;;;;;2.00;2.00;;;;;21.33;39.29;101816.44;5015482;28;45534;-49
2023/05/24 02:37:00;;;;;;;;;1.00;1.00;;;;;21.34;39.24;101814.63;5016797;28;45339;-50
2023/05/24 02:39:26;;;;;;;;;2.50;2.50;;;;;21.33;39.56;101820.88;5017042;28;45375;-50
2023/05/24 02:41:51;;;;;;;;;1.25;1.25;;;;;21.31;39.54;101811.22;5016641;28;46434;-50
2023/05/24 02:44:16;;;;;;;;;1.00;1.00;;;;;21.33;39.35;101818.22;5016370;28;54728;-50
2023/05/24 02:46:42;;;;;;;;;2.50;1.25;;;;;21.32;39.43;101809.44;5017196;28;45339;-56
2023/05/24 02:49:08;;;;;;;;;1.00;1.00;;;;;21.31;39.61;101811.22;5016962;28;45397;-56
2023/05/24 02:51:35;;;;;;;;;2.00;1.00;;;;;21.30;39.68;101809.53;5016345;28;46211;-50
2023/05/24 02:54:01;;;;;;;;;2.75;1.00;;;;;21.30;39.57;101806.88;5015850;28;45734;-57
2023/05/24 02:56:27;;;;;;;;;1.00;1.00;;;;;21.28;39.60;101800.81;5016581;28;45248;-57
2023/05/24 02:58:54;;;;;;;;;2.50;1.25;;;;;21.31;39.65;101805.09;5016095;28;45557;-57
2023/05/24 03:01:20;;;;;;;;;1.00;1.00;;;;;21.31;39.69;101808.59;5016492;28;45419;-55
2023/05/24 03:03:46;;;;;;;;;2.00;1.00;;;;;21.30;39.23;101801.59;5016687;28;45817;-57
2023/05/24 03:06:13;;;;;;;;;1.75;1.75;;;;;21.30;39.32;101785.78;5016603;28;45914;-57
2023/05/24 03:08:39;;;;;;;;;1.75;1.50;;;;;21.29;39.25;101789.34;5016620;28;45423;-56
2023/05/24 03:11:04;;;;;;;;;2.00;2.00;;;;;21.30;39.39;101800.72;5016245;28;45513;-56
2023/05/24 03:13:30;;;;;;;;;3.50;2.00;;;;;21.28;39.61;101792.91;5016241;28;45316;-57
2023/05/24 03:15:55;;;;;;;;;1.25;1.25;;;;;21.29;39.51;101791.09;5016482;28;45258;-57
2023/05/24 03:18:20;;;;;;;;;2.75;1.00;;;;;21.27;39.63;101791.19;5016406;28;45302;-57
2023/05/24 03:20:46;;;;;;;;;2.00;1.00;;;;;21.26;39.44;101789.47;5016250;28;46263;-56
2023/05/24 03:23:11;;;;;;;;;2.00;2.00;;;;;21.28;39.34;101792.03;5016133;28;45330;-57
2023/05/24 03:25:37;;;;;;;;;2.00;2.00;;;;;21.27;39.72;101791.19;5016333;28;45295;-56
2023/05/24 03:28:02;;;;;;;;;3.25;2.00;;;;;21.28;39.66;101798.19;5016409;28;45362;-57
2023/05/24 03:30:28;;;;;;;;;1.00;1.00;;;;;21.29;39.53;101785.84;5016073;28;45455;-57
2023/05/24 03:32:53;;;;;;;;;3.00;1.00;;;;;21.27;39.78;101796.47;5015920;28;45465;-56
2023/05/24 03:35:19;;;;;;;;;2.00;2.00;;;;;21.28;39.21;101792.91;5016197;28;45450;-54
2023/05/24 03:37:45;;;;;;;;;2.00;2.00;;;;;21.26;39.47;101800.00;5016665;28;45589;-56
2023/05/24 03:40:10;;;;;;;;;3.00;1.00;;;;;21.26;39.39;101793.91;5015818;28;46985;-57
2023/05/24 03:42:36;;;;;;;;;1.25;1.25;;;;;21.24;39.41;101796.59;5015955;28;45293;-56
2023/05/24 03:45:01;;;;;;;;;2.00;1.00;;;;;21.26;39.51;101799.19;5016059;28;45449;-57
2023/05/24 03:47:26;;;;;;;;;2.00;1.00;;;;;21.26;39.31;101804.44;5016165;28;45548;-53
2023/05/24 03:49:52;;;;;;;;;3.00;1.33;;;;;21.26;39.37;101800.00;5015104;28;60833;-54
2023/05/24 03:52:17;;;;;;;;;1.75;1.75;;;;;21.26;39.74;101793.91;5016049;28;45310;-56
2023/05/24 03:54:42;;;;;;;;;2.00;1.00;;;;;21.25;39.73;101800.94;5015855;28;45487;-57
2023/05/24 03:57:08;;;;;;;;;1.00;1.00;;;;;21.22;39.48;101794.94;5016064;28;45604;-56
2023/05/24 03:59:33;;;;;;;;;2.00;1.67;;;;;21.25;39.39;101808.84;5015132;28;60474;-53
2023/05/24 04:01:59;;;;;;;;;1.00;1.00;;;;;21.25;39.28;101808.00;5015815;28;45229;-56
2023/05/24 04:04:24;;;;;;;;;2.00;1.00;;;;;21.24;39.82;101812.41;5016453;28;45251;-56
2023/05/24 04:06:49;;;;;;;;;1.00;1.00;;;;;21.23;39.82;101813.31;5019649;28;45152;-56
2023/05/24 04:09:15;;;;;;;;;2.25;1.25;;;;;21.24;39.76;101812.41;5034203;28;52966;-55
2023/05/24 04:11:40;;;;;;;;;2.25;2.00;;;;;21.23;39.28;101805.41;5018910;28;45352;-57
2023/05/24 04:14:06;;;;;;;;;1.50;1.50;;;;;21.23;39.68;101815.97;5019328;28;45904;-55
2023/05/24 04:16:32;;;;;;;;;2.00;1.00;;;;;21.24;39.72;101822.94;5019445;28;45361;-56
2023/05/24 04:19:00;;;;;;;;;2.25;2.00;;;;;21.23;39.88;101810.69;5018892;28;45351;-57
2023/05/24 04:21:26;;;;;;;;;1.00;1.00;;;;;21.24;39.62;101816.84;5018958;28;45429;-55
2023/05/24 04:23:52;;;;;;;;;2.50;2.00;;;;;21.23;39.50;101818.59;5019312;28;45459;-49
2023/05/24 04:26:17;;;;;;;;;4.25;4.00;;;;;21.21;39.43;101815.19;5019343;28;45315;-52
2023/05/24 04:28:44;;;;;;;;;7.00;5.25;;;;;21.22;39.66;101816.03;5018714;28;46154;-53
2023/05/24 04:31:10;;;;;;;;;26.00;25.75;;;;;21.21;39.50;101823.09;5018506;28;45395;-50
2023/05/24 04:33:36;;;;;;;;;33.75;29.25;;;;;21.23;39.76;101825.66;5018254;28;45419;-50
2023/05/24 04:36:02;;;;;;;;;42.75;36.00;;;;;21.21;39.66;101833.66;5018794;28;45262;-55
2023/05/24 04:38:31;;;;;;;;;55.50;42.50;;;;;21.18;39.41;101831.13;5018669;28;47374;-53
2023/05/24 04:41:00;;;;;;;;;59.50;48.50;;;;;21.16;38.94;101840.88;5033796;28;45781;-56
2023/05/24 04:43:26;;;;;;;;;59.00;46.25;;;;;21.13;38.98;101843.63;5018737;28;45308;-57
2023/05/24 04:45:55;;;;;;;;;60.00;47.25;;;;;21.08;39.15;101854.38;5019002;28;45237;-56
2023/05/24 04:48:23;;;;;;;;;55.75;43.25;;;;;21.04;38.99;101846.66;5018538;28;46326;-55
2023/05/24 04:50:55;;;;;;;;;49.50;41.50;;;;;20.99;38.82;101850.38;5018809;28;45875;-56
2023/05/24 04:53:21;;;;;;;;;46.75;37.50;;;;;20.92;38.67;101848.88;5018652;28;45355;-57
2023/05/24 04:55:47;;;;;;;;;43.25;35.00;;;;;20.92;38.71;101848.88;5033940;28;45523;-56
2023/05/24 04:58:13;;;;;;;;;47.75;39.25;;;;;20.90;38.71;101849.88;5018162;28;47294;-53
2023/05/24 05:00:38;;;;;;;;;42.00;34.75;;;;;20.87;39.06;101850.88;5018382;28;45329;-55
2023/05/24 05:03:04;;;;;;;;;46.75;37.50;;;;;20.85;39.13;101850.06;5018275;28;45312;-55
2023/05/24 05:05:30;;;;;;;;;37.50;34.00;;;;;20.83;38.67;101849.25;5018649;28;45248;-53
2023/05/24 05:07:55;;;;;;;;;38.75;33.75;;;;;20.82;38.89;101852.81;5018050;28;46172;-53
2023/05/24 05:10:21;;;;;;;;;43.75;34.75;;;;;20.80;38.18;101849.38;5017163;28;45268;-56
2023/05/24 05:12:46;;;;;;;;;35.00;31.00;;;;;20.79;38.75;101850.28;5018254;28;45267;-53
2023/05/24 05:15:12;;;;;;;;;31.67;26.33;;;;;20.77;38.70;101849.53;5017791;28;53555;-54
2023/05/24 05:17:37;;;;;;;;;30.50;28.00;;;;;20.76;38.46;101847.81;5017273;28;47243;-55
2023/05/24 05:20:03;;;;;;;;;29.25;27.25;;;;;20.77;38.72;101852.16;5017909;28;45276;-56
2023/05/24 05:22:29;;;;;;;;;27.00;24.00;;;;;20.74;38.85;101839.94;5017894;28;45408;-49
2023/05/24 05:24:54;;;;;;;;;27.75;21.25;;;;;20.75;38.35;101848.72;5016884;28;45612;-47
2023/05/24 05:27:20;;;;;;;;;20.50;18.50;;;;;20.72;38.46;101836.50;5017571;28;45762;-51
2023/05/24 05:29:45;;;;;;;;;24.25;20.00;;;;;20.73;38.31;101847.88;5017725;28;45408;-47
2023/05/24 05:32:10;;;;;;;;;20.50;18.00;;;;;20.72;38.22;101840.91;5017660;28;45926;-52
2023/05/24 05:34:36;;;;;;;;;20.25;16.50;;;;;20.72;38.18;101846.16;5018060;28;45320;-49
2023/05/24 05:37:01;;;;;;;;;18.25;17.25;;;;;20.73;38.33;101843.47;5015544;28;46203;-50
2023/05/24 05:39:26;;;;;;;;;20.50;14.75;;;;;20.71;38.40;101845.31;5017195;28;45375;-49
2023/05/24 05:41:52;;;;;;;;;18.50;16.25;;;;;20.70;38.07;101835.69;5018124;28;45418;-47
2023/05/24 05:44:17;;;;;;;;;22.50;20.75;;;;;20.72;38.24;101836.50;5016574;28;45719;-47
2023/05/24 05:46:44;;;;;;;;;21.00;19.50;;;;;20.75;39.26;101851.34;5017122;28;46938;-54
2023/05/24 05:49:11;;;;;;;;;20.75;20.25;;;;;20.76;39.22;101848.66;5017501;28;45329;-51
2023/05/24 05:51:37;;;;;;;;;28.25;19.75;;;;;20.79;39.12;101847.66;5015166;28;45457;-49
2023/05/24 05:54:03;;;;;;;;;18.50;14.25;;;;;20.80;38.62;101849.38;5017293;28;45319;-55
2023/05/24 05:56:29;;;;;;;;;19.00;16.75;;;;;20.82;38.66;101858.09;5016126;28;46476;-52
2023/05/24 05:58:54;;;;;;;;;18.75;15.50;;;;;20.81;38.86;101857.25;5017679;28;45283;-47
2023/05/24 06:01:20;;;;;;;;;17.50;14.50;;;;;20.81;38.84;101865.16;5017327;28;45384;-53
2023/05/24 06:03:45;;;;;;;;;17.50;16.50;;;;;20.80;38.87;101860.78;5017423;28;45429;-55
2023/05/24 06:06:11;;;;;;;;;14.25;11.50;;;;;20.81;38.94;101861.63;5017089;28;45480;-53
2023/05/24 06:08:36;;;;;;;;;14.75;12.50;;;;;20.81;38.76;101861.63;5017102;28;45451;-53
2023/05/24 06:11:01;;;;;;;;;14.25;11.50;;;;;20.80;39.01;101860.78;5016164;28;45413;-51
2023/05/24 06:13:27;;;;;;;;;11.75;11.25;;;;;20.81;38.95;101864.28;5017521;28;45612;-52
2023/05/24 06:15:53;;;;;;;;;10.00;10.00;;;;;20.80;38.74;101859.91;5016734;28;46485;-58
2023/05/24 06:18:19;;;;;;;;;10.00;9.00;;;;;20.78;38.76;101851.25;5015795;28;45793;-54
2023/05/24 06:20:45;;;;;;;;;12.50;9.50;;;;;20.75;38.88;101862.75;5016866;28;45448;-53
2023/05/24 06:23:10;;;;;;;;;10.75;9.00;;;;;20.77;38.99;101870.59;5017239;28;45488;-54
2023/05/24 06:25:37;;;;;;;;;10.00;8.00;;;;;20.78;38.65;101877.59;5016723;28;50454;-53
2023/05/24 06:28:03;;;;;;;;;8.75;6.00;;;;;20.77;38.63;101870.59;5014522;28;45688;-57
2023/05/24 06:30:28;;;;;;;;;7.75;7.00;;;;;20.77;39.06;101884.63;5039035;28;45356;-53
2023/05/24 06:32:55;;;;;;;;;7.00;6.25;;;;;20.77;38.79;101884.63;5024997;28;50339;-57
2023/05/24 06:35:21;;;;;;;;;8.75;6.00;;;;;20.77;38.39;101879.34;5017982;28;45620;-53
2023/05/24 06:37:46;;;;;;;;;4.50;4.50;;;;;20.79;38.59;101890.69;5016595;28;45256;-51
2023/05/24 06:40:12;;;;;;;;;11.50;6.00;;;;;20.78;38.71;101874.94;5016927;28;45401;-50
2023/05/24 06:42:38;;;;;;;;;5.00;5.00;;;;;20.79;38.49;101881.91;5017020;28;45323;-55
2023/05/24 06:45:04;;;;;;;;;8.25;5.50;;;;;20.79;38.09;101884.53;5016483;28;45476;-54
2023/05/24 06:47:29;;;;;;;;;7.50;4.50;;;;;20.79;38.39;101879.28;5016907;28;45336;-57
2023/05/24 06:49:55;;;;;;;;;5.00;5.00;;;;;20.79;37.88;101876.63;5016275;28;52674;-56
2023/05/24 06:52:21;;;;;;;;;4.50;4.50;;;;;20.79;38.08;101884.53;5016253;28;45592;-52
2023/05/24 06:54:47;;;;;;;;;7.00;4.75;;;;;20.78;38.37;101878.44;5025058;28;46640;-50
2023/05/24 06:57:12;;;;;;;;;4.00;4.00;;;;;20.80;38.56;101884.50;5016165;28;45335;-52
2023/05/24 06:59:37;;;;;;;;;8.25;5.00;;;;;20.82;38.73;101880.03;5014553;28;45270;-52
2023/05/24 07:02:06;;;;;;;;;4.25;4.25;;;;;20.85;38.74;101882.53;5016674;28;45339;-54
2023/05/24 07:04:32;;;;;;;;;7.75;4.50;;;;;20.87;38.63;101885.13;5015846;28;46987;-53
2023/05/24 07:06:57;;;;;;;;;7.25;4.75;;;;;20.88;38.70;101889.47;5016448;28;45406;-52
2023/05/24 07:09:22;;;;;;;;;4.00;3.00;;;;;20.92;39.09;101880.50;5015604;28;45339;-50
2023/05/24 07:11:48;;;;;;;;;6.50;4.00;;;;;20.94;38.67;101883.94;5016492;28;45388;-50
2023/05/24 07:14:13;;;;;;;;;5.00;4.00;;;;;20.94;38.91;101883.94;5015852;28;45767;-50
2023/05/24 07:16:39;;;;;;;;;4.25;3.00;;;;;20.98;38.48;101879.41;5016079;28;45279;-49
2023/05/24 07:19:05;;;;;;;;;8.25;5.50;;;;;21.00;38.72;101888.94;5015796;28;45350;-52
2023/05/24 07:21:30;;;;;;;;;2.25;2.00;;;;;21.00;38.54;101891.59;5016663;28;45174;-46
2023/05/24 07:23:56;;;;;;;;;10.00;3.00;;;;;21.00;38.45;101878.41;5015555;28;46110;-54
2023/05/24 07:26:22;;;;;;;;;6.25;5.50;;;;;21.04;38.90;101883.56;5016162;28;45296;-52
2023/05/24 07:28:47;;;;;;;;;4.75;4.50;;;;;21.06;38.50;101885.19;5015658;28;45418;-48
2023/05/24 07:31:13;;;;;;;;;5.75;4.00;;;;;21.08;38.49;101887.78;5016086;28;45631;-52
2023/05/24 07:33:39;;;;;;;;;3.25;3.00;;;;;21.08;38.72;101879.88;5015549;28;46257;-53
2023/05/24 07:36:05;;;;;;;;;5.75;4.00;;;;;21.11;38.70;101890.31;5015859;28;45369;-53
2023/05/24 07:38:31;;;;;;;;;5.75;3.00;;;;;21.11;38.62;101885.88;5015503;28;45522;-51
2023/05/24 07:41:02;;;;;;;;;5.50;3.25;;;;;21.12;38.39;101886.72;5019046;28;45315;-52
2023/05/24 07:43:28;;;;;;;;;3.25;2.75;;;;;21.14;38.81;101883.13;5019416;28;47481;-51
2023/05/24 07:45:53;;;;;;;;;3.25;3.25;;;;;21.15;38.80;101886.63;5019455;28;45268;-46
2023/05/24 07:48:20;;;;;;;;;2.75;2.75;;;;;21.16;38.72;101883.06;5017685;28;45654;-47
2023/05/24 07:50:47;;;;;;;;;3.00;3.00;;;;;21.17;38.67;101890.91;5019519;28;45422;-48
2023/05/24 07:53:14;;;;;;;;;4.25;3.00;;;;;21.19;38.63;101887.34;5018802;28;46375;-49
2023/05/24 07:55:39;;;;;;;;;4.00;4.00;;;;;21.20;38.26;101897.84;5019140;28;45699;-48
2023/05/24 07:58:05;;;;;;;;;5.67;4.00;;;;;21.20;38.38;101895.22;5017269;28;62145;-51
2023/05/24 08:00:31;;;;;;;;;2.00;2.00;;;;;21.21;38.26;101891.66;5019238;28;45281;-47
2023/05/24 08:02:57;;;;;;;;;4.00;2.00;;;;;21.22;38.47;101898.59;5018894;28;46615;-51
2023/05/24 08:05:22;;;;;;;;;4.00;3.00;;;;;21.21;38.28;101899.56;5018776;28;45262;-52
2023/05/24 08:07:48;;;;;;;;;5.75;3.75;;;;;21.24;38.36;101895.94;5019118;28;45289;-49
2023/05/24 08:10:13;;;;;;;;;4.00;2.67;;;;;21.22;38.41;101893.34;5017744;28;58042;-52
2023/05/24 08:12:38;;;;;;;;;3.00;3.00;;;;;21.25;38.13;101892.38;5016829;28;66588;-52
2023/05/24 08:15:05;;;;;;;;;3.50;2.00;;;;;21.24;38.40;101899.41;5017782;28;49029;-51
2023/05/24 08:17:30;;;;;;;;;3.00;3.00;;;;;21.25;38.21;101885.31;5016953;28;45408;-51
2023/05/24 08:19:56;;;;;;;;;3.75;2.00;;;;;21.25;38.04;101893.22;5018220;28;45583;-51
2023/05/24 08:22:21;;;;;;;;;3.25;2.00;;;;;21.26;38.29;101892.31;5018100;28;45457;-55
2023/05/24 08:24:46;;;;;;;;;6.25;3.25;;;;;21.26;38.22;101881.75;5017812;28;45506;-53
2023/05/24 08:27:12;;;;;;;;;4.00;4.00;;;;;21.27;37.91;101895.81;5018032;28;45399;-56
2023/05/24 08:29:38;;;;;;;;;3.75;3.00;;;;;21.27;38.13;101899.28;5017817;28;45501;-56
2023/05/24 08:32:08;;;;;;;;;2.75;2.75;;;;;21.27;37.75;101907.19;5018145;28;45392;-55
2023/05/24 08:34:35;;;;;;;;;5.00;4.00;;;;;21.28;38.06;101900.13;5017970;28;45353;-57
2023/05/24 08:37:00;;;;;;;;;3.25;3.25;;;;;21.28;38.08;101892.22;5018147;28;45412;-51
2023/05/24 08:39:26;;;;;;;;;8.00;2.75;;;;;21.29;37.79;101889.53;5017612;28;45444;-54
2023/05/24 08:41:51;;;;;;;;;5.00;2.00;;;;;21.29;37.82;101893.94;5017990;28;46259;-49
2023/05/24 08:44:17;;;;;;;;;4.75;3.25;;;;;21.29;37.59;101888.66;5015756;28;61992;-47
2023/05/24 08:46:43;;;;;;;;;3.00;3.00;;;;;21.29;37.71;101892.19;5017972;28;45482;-45
2023/05/24 08:49:11;;;;;;;;;4.00;1.50;;;;;21.30;37.53;101891.25;5017809;28;45464;-47
2023/05/24 08:51:38;;;;;;;;;2.75;2.00;;;;;21.30;37.73;101891.25;5016529;28;45372;-49
2023/05/24 08:54:05;;;;;;;;;2.75;2.25;;;;;21.31;37.41;101892.09;5017703;28;45224;-49
2023/05/24 08:56:31;;;;;;;;;3.25;2.75;;;;;21.31;37.63;101887.69;5018045;28;45478;-51
2023/05/24 08:58:57;;;;;;;;;4.25;3.00;;;;;21.32;37.80;101888.56;5016214;28;45340;-53
2023/05/24 09:01:23;;;;;;;;;5.75;2.25;;;;;21.31;37.61;101886.81;5016793;28;63861;-48
2023/05/24 09:03:50;;;;;;;;;4.25;3.75;;;;;21.33;37.50;101881.50;5017347;28;45465;-47
2023/05/24 09:06:17;;;;;;;;;4.50;2.50;;;;;21.31;37.52;101882.44;5017658;28;45270;-48
2023/05/24 09:08:44;;;;;;;;;3.25;2.50;;;;;21.32;37.15;101878.00;5017510;28;45514;-43
2023/05/24 09:11:10;;;;;;;;;2.50;2.25;;;;;21.32;37.26;101878.00;5017039;28;47242;-53
2023/05/24 09:13:35;;;;;;;;;3.00;3.00;;;;;21.32;37.26;101885.91;5017721;28;45296;-52
2023/05/24 09:16:01;;;;;;;;;3.00;2.00;;;;;21.33;36.85;101876.25;5032325;28;45431;-52
2023/05/24 09:18:27;;;;;;;;;3.25;3.00;;;;;21.35;36.96;101884.91;5017657;28;45383;-56
2023/05/24 09:20:53;;;;;;;;;4.50;3.00;;;;;21.34;36.80;101873.53;5017026;28;45439;-55
2023/05/24 09:23:18;;;;;;;;;4.00;3.00;;;;;21.34;36.72;101881.44;5017201;28;45320;-57
2023/05/24 09:25:45;;;;;;;;;2.00;2.00;;;;;21.35;36.47;101890.19;5017277;28;45453;-56
2023/05/24 09:28:14;;;;;;;;;2.00;1.00;;;;;21.34;36.86;101870.00;5017531;28;45508;-55
2023/05/24 09:30:43;;;;;;;;;1.00;0.00;;;;;21.34;36.97;101867.38;5016768;28;46628;-52
2023/05/24 09:33:10;;;;;;;;;1.75;1.75;;;;;21.34;36.61;101864.75;5017116;28;45362;-50
2023/05/24 09:35:35;;;;;;;;;3.50;2.75;;;;;21.35;36.65;101866.47;5017214;28;45369;-50
2023/05/24 09:38:02;;;;;;;;;1.75;1.75;;;;;21.35;36.51;101875.25;5017242;28;45547;-56
2023/05/24 09:40:28;;;;;;;;;3.75;2.50;;;;;21.35;36.31;101875.25;5016303;28;46281;-53
2023/05/24 09:43:08;;;;;;;;;6.75;2.00;;;;;21.37;36.17;101868.13;5032141;28;45715;-51
2023/05/24 09:45:47;;;;;;;;;4.00;2.00;;;;;21.36;36.43;101865.53;5017234;28;45442;-57
2023/05/24 09:48:15;;;;;;;;;2.00;2.00;;;;;21.36;36.56;101862.91;5017054;28;45339;-51
2023/05/24 09:50:40;;;;;;;;;2.75;2.00;;;;;21.37;36.45;101864.63;5016165;28;45454;-55
2023/05/24 09:53:07;;;;;;;;;2.00;1.00;;;;;21.36;36.34;101871.69;5015655;28;45427;-47
2023/05/24 09:55:35;;;;;;;;;3.50;2.00;;;;;21.36;36.16;101869.06;5015261;28;45312;-42
2023/05/24 09:58:07;;;;;;;;;4.00;2.00;;;;;21.38;36.21;101869.84;5016989;28;45628;-42
2023/05/24 10:00:35;;;;;;;;;6.00;3.00;;;;;21.38;36.31;101866.34;5016328;28;46097;-53
2023/05/24 10:03:06;;;;;;;;;2.25;1.00;;;;;21.38;35.82;101875.13;5016555;28;45780;-55
2023/05/24 10:05:32;;;;;;;;;1.00;1.00;;;;;21.38;36.19;101866.34;5016715;28;45414;-53
2023/05/24 10:07:59;;;;;;;;;2.00;2.00;;;;;21.39;35.97;101862.78;5016848;28;45387;-53
2023/05/24 10:10:27;;;;;;;;;3.00;2.00;;;;;21.38;36.17;101866.34;5016160;28;46404;-54
2023/05/24 10:12:55;;;;;;;;;2.00;2.00;;;;;21.40;36.17;101856.59;5016105;28;45431;-54
2023/05/24 10:15:20;;;;;;;;;2.00;2.00;;;;;21.40;35.80;101851.31;5016482;28;45345;-57
2023/05/24 10:17:45;;;;;;;;;4.00;2.25;;;;;21.39;36.26;101854.88;5015427;28;45467;-56
2023/05/24 10:20:11;;;;;;;;;2.00;2.00;;;;;21.40;36.44;101848.66;5016023;28;46378;-51
2023/05/24 10:22:42;;;;;;;;;2.50;1.50;;;;;21.41;36.21;101853.03;5016408;28;45351;-50
2023/05/24 10:25:11;;;;;;;;;4.50;1.00;;;;;21.41;36.04;101855.66;5015065;28;45226;-49
2023/05/24 10:27:38;;;;;;;;;1.00;1.00;;;;;21.42;36.37;101852.09;5016947;28;45629;-51
2023/05/24 10:30:26;;;;;;;;;1.25;1.25;;;;;21.42;36.24;101852.09;5015842;28;46131;-55
2023/05/24 10:32:54;;;;;;;;;1.50;1.50;;;;;21.42;36.11;101854.75;5015693;28;45266;-56
2023/05/24 10:35:22;;;;;;;;;1.75;1.00;;;;;21.42;36.04;101842.41;5016133;28;45351;-54
2023/05/24 10:37:48;;;;;;;;;3.00;2.00;;;;;21.42;35.78;101841.56;5016462;28;45439;-57
2023/05/24 10:40:19;;;;;;;;;2.00;1.75;;;;;21.41;36.04;101845.97;5015624;28;45423;-56
2023/05/24 10:42:46;;;;;;;;;1.00;1.00;;;;;21.42;35.88;101834.50;5014706;28;45607;-56
2023/05/24 10:45:23;;;;;;;;;2.00;2.00;;;;;21.42;35.75;101837.13;5016392;28;45391;-49
2023/05/24 10:47:48;;;;;;;;;0.50;0.50;;;;;21.43;36.07;101840.63;5015292;28;45598;-56
2023/05/24 10:50:19;;;;;;;;;4.50;2.00;;;;;21.43;35.77;101841.47;5015500;28;46651;-56
2023/05/24 10:52:44;;;;;;;;;2.25;1.25;;;;;21.43;36.08;101841.47;5016000;28;45721;-55
2023/05/24 10:55:10;;;;;;;;;1.00;1.00;;;;;21.45;36.06;101841.41;5016059;28;45446;-55
2023/05/24 10:57:38;;;;;;;;;1.50;1.50;;;;;21.44;35.90;101850.25;5016365;28;45403;-47
2023/05/24 11:00:27;;;;;;;;;1.00;1.00;;;;;21.44;35.74;101845.00;5014768;28;46440;-52
2023/05/24 11:03:00;;;;;;;;;1.25;1.25;;;;;21.45;35.83;101841.41;5015510;28;45360;-49
2023/05/24 11:05:33;;;;;;;;;0.00;0.00;;;;;21.43;35.73;101838.84;5015756;28;45273;-51
2023/05/24 11:07:58;;;;;;;;;1.50;1.00;;;;;21.43;35.89;101841.47;5016349;28;45256;-54
2023/05/24 11:10:30;;;;;;;;;3.50;1.25;;;;;21.43;35.91;101840.63;5015745;28;45867;-48
2023/05/24 11:13:03;;;;;;;;;2.25;1.25;;;;;21.45;35.71;101841.41;5015562;28;45315;-47
2023/05/24 11:15:29;;;;;;;;;1.50;1.50;;;;;21.45;35.73;101838.75;5015299;28;45705;-51
2023/05/24 11:18:12;;;;;;;;;4.25;2.25;;;;;21.44;35.75;101835.28;5015922;28;45641;-55
2023/05/24 11:20:40;;;;;;;;;1.00;1.00;;;;;21.45;35.40;101844.03;5015711;28;45462;-53